sensor_id;sensor_type;location;lat;lon;timestamp;pressure;altitude;pressure_sealevel;temperature;humidity
36380;BME280;22411;53.016;18.632;2023-03-03T00:02:28;101176.88;;;-1.68;100.00
36380;BME280;22411;53.016;18.632;2023-03-03T00:04:54;101174.34;;;-1.68;100.00
36380;BME280;22411;53.016;18.632;2023-03-03T00:07:20;101170.94;;;-1.67;100.00
36380;BME280;22411;53.016;18.632;2023-03-03T00:09:50;101161.66;;;-1.73;100.00
36380;BME280;22411;53.016;18.632;2023-03-03T00:12:23;101155.75;;;-1.76;100.00
36380;BME280;22411;53.016;18.632;2023-03-03T00:14:49;101156.59;;;-1.80;100.00
36380;BME280;22411;53.016;18.632;2023-03-03T00:17:27;101154.13;;;-1.88;100.00
36380;BME280;22411;53.016;18.632;2023-03-03T00:19:53;101149.94;;;-1.97;100.00
36380;BME280;22411;53.016;18.632;2023-03-03T00:22:29;101144.84;;;-1.89;100.00
36380;BME280;22411;53.016;18.632;2023-03-03T00:25:00;101142.28;;;-1.89;100.00
36380;BME280;22411;53.016;18.632;2023-03-03T00:27:38;101125.38;;;-1.95;100.00
36380;BME280;22411;53.016;18.632;2023-03-03T00:30:16;101118.66;;;-2.00;100.00
36380;BME280;22411;53.016;18.632;2023-03-03T00:32:45;101111.88;;;-2.01;100.00
36380;BME280;22411;53.016;18.632;2023-03-03T00:35:32;101109.31;;;-2.01;100.00
36380;BME280;22411;53.016;18.632;2023-03-03T00:38:12;101100.88;;;-2.03;100.00
36380;BME280;22411;53.016;18.632;2023-03-03T00:40:39;101103.47;;;-2.13;100.00
36380;BME280;22411;53.016;18.632;2023-03-03T00:43:18;101106.94;;;-2.23;100.00
36380;BME280;22411;53.016;18.632;2023-03-03T00:45:51;101106.94;;;-2.24;100.00
36380;BME280;22411;53.016;18.632;2023-03-03T00:50:46;101108.66;;;-2.25;100.00
36380;BME280;22411;53.016;18.632;2023-03-03T00:53:18;101111.16;;;-2.23;100.00
36380;BME280;22411;53.016;18.632;2023-03-03T00:55:45;101098.50;;;-2.26;100.00
36380;BME280;22411;53.016;18.632;2023-03-03T00:58:12;101103.59;;;-2.29;100.00
36380;BME280;22411;53.016;18.632;2023-03-03T01:00:39;101102.78;;;-2.34;100.00
36380;BME280;22411;53.016;18.632;2023-03-03T01:03:08;101090.91;;;-2.34;100.00
36380;BME280;22411;53.016;18.632;2023-03-03T01:05:34;101091.78;;;-2.35;100.00
36380;BME280;22411;53.016;18.632;2023-03-03T01:08:01;101094.31;;;-2.38;100.00
36380;BME280;22411;53.016;18.632;2023-03-03T01:10:29;101095.19;;;-2.39;100.00
36380;BME280;22411;53.016;18.632;2023-03-03T01:12:56;101094.34;;;-2.37;100.00
36380;BME280;22411;53.016;18.632;2023-03-03T01:15:23;101090.09;;;-2.39;100.00
36380;BME280;22411;53.016;18.632;2023-03-03T01:17:50;101097.69;;;-2.38;100.00
36380;BME280;22411;53.016;18.632;2023-03-03T01:20:16;101104.47;;;-2.38;100.00
36380;BME280;22411;53.016;18.632;2023-03-03T01:22:42;101112.09;;;-2.35;100.00
36380;BME280;22411;53.016;18.632;2023-03-03T01:25:09;101107.91;;;-2.41;100.00
36380;BME280;22411;53.016;18.632;2023-03-03T01:27:36;101109.59;;;-2.44;100.00
36380;BME280;22411;53.016;18.632;2023-03-03T01:30:03;101105.41;;;-2.47;100.00
36380;BME280;22411;53.016;18.632;2023-03-03T01:32:30;101097.72;;;-2.36;100.00
36380;BME280;22411;53.016;18.632;2023-03-03T01:34:56;101107.91;;;-2.42;100.00
36380;BME280;22411;53.016;18.632;2023-03-03T01:37:23;101097.72;;;-2.39;100.00
36380;BME280;22411;53.016;18.632;2023-03-03T01:39:53;101082.44;;;-2.33;100.00
36380;BME280;22411;53.016;18.632;2023-03-03T01:42:20;101095.97;;;-2.29;100.00
36380;BME280;22411;53.016;18.632;2023-03-03T01:44:46;101097.69;;;-2.34;100.00
36380;BME280;22411;53.016;18.632;2023-03-03T01:47:21;101087.59;;;-2.41;100.00
36380;BME280;22411;53.016;18.632;2023-03-03T01:49:59;101088.44;;;-2.42;100.00
36380;BME280;22411;53.016;18.632;2023-03-03T01:52:38;101092.69;;;-2.45;100.00
36380;BME280;22411;53.016;18.632;2023-03-03T01:55:22;101094.31;;;-2.35;100.00
36380;BME280;22411;53.016;18.632;2023-03-03T01:58:01;101086.69;;;-2.35;100.00
36380;BME280;22411;53.016;18.632;2023-03-03T02:00:28;101079.03;;;-2.27;100.00
36380;BME280;22411;53.016;18.632;2023-03-03T02:02:55;101078.22;;;-2.34;100.00
36380;BME280;22411;53.016;18.632;2023-03-03T02:05:21;101068.91;;;-2.30;100.00
36380;BME280;22411;53.016;18.632;2023-03-03T02:07:47;101073.16;;;-2.34;100.00
36380;BME280;22411;53.016;18.632;2023-03-03T02:10:16;101073.16;;;-2.34;100.00
36380;BME280;22411;53.016;18.632;2023-03-03T02:12:47;101073.13;;;-2.32;100.00
36380;BME280;22411;53.016;18.632;2023-03-03T02:15:17;101076.50;;;-2.30;100.00
36380;BME280;22411;53.016;18.632;2023-03-03T02:17:45;101078.25;;;-2.35;100.00
36380;BME280;22411;53.016;18.632;2023-03-03T02:20:19;101073.19;;;-2.37;100.00
36380;BME280;22411;53.016;18.632;2023-03-03T02:25:36;101073.97;;;-2.33;100.00
36380;BME280;22411;53.016;18.632;2023-03-03T02:28:05;101081.63;;;-2.35;100.00
36380;BME280;22411;53.016;18.632;2023-03-03T02:30:37;101073.97;;;-2.29;100.00
36380;BME280;22411;53.016;18.632;2023-03-03T02:33:04;101075.63;;;-2.28;100.00
36380;BME280;22411;53.016;18.632;2023-03-03T02:35:36;101071.44;;;-2.30;100.00
36380;BME280;22411;53.016;18.632;2023-03-03T02:38:52;101071.47;;;-2.32;100.00
36380;BME280;22411;53.016;18.632;2023-03-03T02:44:02;101068.94;;;-2.35;100.00
36380;BME280;22411;53.016;18.632;2023-03-03T02:46:32;101054.56;;;-2.41;100.00
36380;BME280;22411;53.016;18.632;2023-03-03T02:48:59;101062.16;;;-2.38;100.00
36380;BME280;22411;53.016;18.632;2023-03-03T02:51:25;101042.72;;;-2.40;100.00
36380;BME280;22411;53.016;18.632;2023-03-03T02:53:51;101040.19;;;-2.40;100.00
36380;BME280;22411;53.016;18.632;2023-03-03T02:56:17;101030.88;;;-2.44;100.00
36380;BME280;22411;53.016;18.632;2023-03-03T02:58:43;101038.47;;;-2.38;100.00
36380;BME280;22411;53.016;18.632;2023-03-03T03:01:09;101029.19;;;-2.44;100.00
36380;BME280;22411;53.016;18.632;2023-03-03T03:03:36;101039.34;;;-2.41;100.00
36380;BME280;22411;53.016;18.632;2023-03-03T03:06:02;101044.34;;;-2.30;100.00
36380;BME280;22411;53.016;18.632;2023-03-03T03:08:28;101040.13;;;-2.31;100.00
36380;BME280;22411;53.016;18.632;2023-03-03T03:10:55;101048.59;;;-2.33;100.00
36380;BME280;22411;53.016;18.632;2023-03-03T03:13:23;101039.28;;;-2.33;100.00
36380;BME280;22411;53.016;18.632;2023-03-03T03:15:49;101040.13;;;-2.31;100.00
36380;BME280;22411;53.016;18.632;2023-03-03T03:18:16;101035.03;;;-2.29;100.00
36380;BME280;22411;53.016;18.632;2023-03-03T03:20:43;101037.56;;;-2.26;100.00
36380;BME280;22411;53.016;18.632;2023-03-03T03:23:10;101030.84;;;-2.32;100.00
36380;BME280;22411;53.016;18.632;2023-03-03T03:25:36;101031.69;;;-2.36;100.00
36380;BME280;22411;53.016;18.632;2023-03-03T03:28:11;101033.38;;;-2.38;100.00
36380;BME280;22411;53.016;18.632;2023-03-03T03:30:37;101028.34;;;-2.41;100.00
36380;BME280;22411;53.016;18.632;2023-03-03T03:33:04;101037.69;;;-2.46;100.00
36380;BME280;22411;53.016;18.632;2023-03-03T03:35:32;101036.00;;;-2.50;100.00
36380;BME280;22411;53.016;18.632;2023-03-03T03:37:58;101031.78;;;-2.51;100.00
36380;BME280;22411;53.016;18.632;2023-03-03T03:40:24;101024.19;;;-2.53;100.00
36380;BME280;22411;53.016;18.632;2023-03-03T03:42:52;101016.59;;;-2.59;100.00
36380;BME280;22411;53.016;18.632;2023-03-03T03:45:19;101010.72;;;-2.63;100.00
36380;BME280;22411;53.016;18.632;2023-03-03T03:47:45;101014.09;;;-2.62;100.00
36380;BME280;22411;53.016;18.632;2023-03-03T03:50:11;101009.84;;;-2.57;100.00
36380;BME280;22411;53.016;18.632;2023-03-03T03:52:38;101015.78;;;-2.58;100.00
36380;BME280;22411;53.016;18.632;2023-03-03T03:55:04;101010.72;;;-2.64;100.00
36380;BME280;22411;53.016;18.632;2023-03-03T03:57:30;101018.31;;;-2.64;100.00
36380;BME280;22411;53.016;18.632;2023-03-03T03:59:56;101022.56;;;-2.61;100.00
36380;BME280;22411;53.016;18.632;2023-03-03T04:02:22;101025.13;;;-2.68;100.00
36380;BME280;22411;53.016;18.632;2023-03-03T04:04:48;101021.72;;;-2.67;100.00
36380;BME280;22411;53.016;18.632;2023-03-03T04:07:14;101004.84;;;-2.72;100.00
36380;BME280;22411;53.016;18.632;2023-03-03T04:09:40;101014.94;;;-2.63;100.00
36380;BME280;22411;53.016;18.632;2023-03-03T04:12:06;101025.06;;;-2.60;100.00
36380;BME280;22411;53.016;18.632;2023-03-03T04:14:32;101014.06;;;-2.60;100.00
36380;BME280;22411;53.016;18.632;2023-03-03T04:16:58;101015.72;;;-2.55;100.00
36380;BME280;22411;53.016;18.632;2023-03-03T04:19:24;101022.50;;;-2.55;100.00
36380;BME280;22411;53.016;18.632;2023-03-03T04:21:50;101016.63;;;-2.60;100.00
36380;BME280;22411;53.016;18.632;2023-03-03T04:24:17;101030.16;;;-2.61;100.00
36380;BME280;22411;53.016;18.632;2023-03-03T04:26:44;101031.84;;;-2.60;100.00
36380;BME280;22411;53.016;18.632;2023-03-03T04:29:10;101025.94;;;-2.63;100.00
36380;BME280;22411;53.016;18.632;2023-03-03T04:31:36;101029.34;;;-2.70;100.00
36380;BME280;22411;53.016;18.632;2023-03-03T04:34:02;101025.09;;;-2.65;100.00
36380;BME280;22411;53.016;18.632;2023-03-03T04:36:28;101021.66;;;-2.54;100.00
36380;BME280;22411;53.016;18.632;2023-03-03T04:38:54;101022.41;;;-2.43;100.00
36380;BME280;22411;53.016;18.632;2023-03-03T04:41:20;101023.28;;;-2.46;100.00
36380;BME280;22411;53.016;18.632;2023-03-03T04:43:46;101019.94;;;-2.49;100.00
36380;BME280;22411;53.016;18.632;2023-03-03T04:46:12;101023.34;;;-2.52;100.00
36380;BME280;22411;53.016;18.632;2023-03-03T04:48:38;101009.78;;;-2.51;100.00
36380;BME280;22411;53.016;18.632;2023-03-03T04:51:05;101026.72;;;-2.54;100.00
36380;BME280;22411;53.016;18.632;2023-03-03T04:53:31;101024.19;;;-2.54;100.00
36380;BME280;22411;53.016;18.632;2023-03-03T04:55:57;101019.13;;;-2.53;100.00
36380;BME280;22411;53.016;18.632;2023-03-03T04:58:23;101027.59;;;-2.55;100.00
36380;BME280;22411;53.016;18.632;2023-03-03T05:00:54;101020.81;;;-2.55;100.00
36380;BME280;22411;53.016;18.632;2023-03-03T05:03:20;101009.81;;;-2.52;100.00
36380;BME280;22411;53.016;18.632;2023-03-03T05:05:46;101010.59;;;-2.49;100.00
36380;BME280;22411;53.016;18.632;2023-03-03T05:08:13;101005.50;;;-2.44;100.00
36380;BME280;22411;53.016;18.632;2023-03-03T05:10:39;101002.97;;;-2.41;100.00
36380;BME280;22411;53.016;18.632;2023-03-03T05:13:06;101004.59;;;-2.35;100.00
36380;BME280;22411;53.016;18.632;2023-03-03T05:15:33;101006.34;;;-2.41;100.00
36380;BME280;22411;53.016;18.632;2023-03-03T05:17:58;101006.38;;;-2.48;100.00
36380;BME280;22411;53.016;18.632;2023-03-03T05:20:25;101016.53;;;-2.48;100.00
36380;BME280;22411;53.016;18.632;2023-03-03T05:22:51;101018.28;;;-2.55;100.00
36380;BME280;22411;53.016;18.632;2023-03-03T05:25:17;101016.59;;;-2.56;100.00
36380;BME280;22411;53.016;18.632;2023-03-03T05:27:43;101019.13;;;-2.53;100.00
36380;BME280;22411;53.016;18.632;2023-03-03T05:30:10;101026.75;;;-2.56;100.00
36380;BME280;22411;53.016;18.632;2023-03-03T05:32:36;101013.19;;;-2.53;100.00
36380;BME280;22411;53.016;18.632;2023-03-03T05:35:04;101013.19;;;-2.53;100.00
36380;BME280;22411;53.016;18.632;2023-03-03T05:37:30;101003.88;;;-2.51;100.00
36380;BME280;22411;53.016;18.632;2023-03-03T05:39:56;101002.97;;;-2.44;100.00
36380;BME280;22411;53.016;18.632;2023-03-03T05:42:22;101005.53;;;-2.49;100.00
36380;BME280;22411;53.016;18.632;2023-03-03T05:44:48;100997.13;;;-2.52;100.00
36380;BME280;22411;53.016;18.632;2023-03-03T05:47:14;100997.06;;;-2.46;100.00
36380;BME280;22411;53.016;18.632;2023-03-03T05:49:40;100976.72;;;-2.42;100.00
36380;BME280;22411;53.016;18.632;2023-03-03T05:52:06;100992.81;;;-2.44;100.00
36380;BME280;22411;53.016;18.632;2023-03-03T05:54:34;100986.09;;;-2.50;100.00
36380;BME280;22411;53.016;18.632;2023-03-03T05:57:00;100986.06;;;-2.45;100.00
36380;BME280;22411;53.016;18.632;2023-03-03T05:59:28;100991.94;;;-2.43;100.00
36380;BME280;22411;53.016;18.632;2023-03-03T06:01:54;100993.63;;;-2.41;100.00
36380;BME280;22411;53.016;18.632;2023-03-03T06:04:21;100981.78;;;-2.43;100.00
36380;BME280;22411;53.016;18.632;2023-03-03T06:06:47;100986.06;;;-2.47;100.00
36380;BME280;22411;53.016;18.632;2023-03-03T06:09:14;100997.94;;;-2.53;100.00
36380;BME280;22411;53.016;18.632;2023-03-03T06:11:41;100994.59;;;-2.55;100.00
36380;BME280;22411;53.016;18.632;2023-03-03T06:14:08;101008.09;;;-2.50;100.00
36380;BME280;22411;53.016;18.632;2023-03-03T06:16:34;101009.75;;;-2.45;100.00
36380;BME280;22411;53.016;18.632;2023-03-03T06:19:01;101006.34;;;-2.44;100.00
36380;BME280;22411;53.016;18.632;2023-03-03T06:21:27;101009.72;;;-2.37;100.00
36380;BME280;22411;53.016;18.632;2023-03-03T06:23:53;101008.03;;;-2.41;100.00
36380;BME280;22411;53.016;18.632;2023-03-03T06:26:19;101012.28;;;-2.42;100.00
36380;BME280;22411;53.016;18.632;2023-03-03T06:28:45;101012.28;;;-2.42;100.00
36380;BME280;22411;53.016;18.632;2023-03-03T06:31:13;101016.53;;;-2.45;100.00
36380;BME280;22411;53.016;18.632;2023-03-03T06:33:40;101007.19;;;-2.42;100.00
36380;BME280;22411;53.016;18.632;2023-03-03T06:36:12;101010.53;;;-2.35;100.00
36380;BME280;22411;53.016;18.632;2023-03-03T06:38:39;101009.63;;;-2.29;100.00
36380;BME280;22411;53.016;18.632;2023-03-03T06:41:05;101014.69;;;-2.26;100.00
36380;BME280;22411;53.016;18.632;2023-03-03T06:43:34;101020.59;;;-2.27;100.00
36380;BME280;22411;53.016;18.632;2023-03-03T06:46:00;101027.41;;;-2.32;100.00
36380;BME280;22411;53.016;18.632;2023-03-03T06:48:28;101034.22;;;-2.31;100.00
36380;BME280;22411;53.016;18.632;2023-03-03T06:50:54;101030.84;;;-2.32;100.00
36380;BME280;22411;53.016;18.632;2023-03-03T06:53:20;101030.84;;;-2.35;100.00
36380;BME280;22411;53.016;18.632;2023-03-03T06:55:46;101038.38;;;-2.27;100.00
36380;BME280;22411;53.016;18.632;2023-03-03T06:58:19;101028.25;;;-2.29;100.00
36380;BME280;22411;53.016;18.632;2023-03-03T07:00:57;101028.28;;;-2.30;100.00
36380;BME280;22411;53.016;18.632;2023-03-03T07:03:32;101034.16;;;-2.27;100.00
36380;BME280;22411;53.016;18.632;2023-03-03T07:05:59;101036.66;;;-2.22;100.00
36380;BME280;22411;53.016;18.632;2023-03-03T07:08:29;101032.41;;;-2.22;100.00
36380;BME280;22411;53.016;18.632;2023-03-03T07:11:00;101042.63;;;-2.26;100.00
36380;BME280;22411;53.016;18.632;2023-03-03T07:13:28;101040.91;;;-2.21;100.00
36380;BME280;22411;53.016;18.632;2023-03-03T07:16:00;101043.44;;;-2.20;100.00
36380;BME280;22411;53.016;18.632;2023-03-03T07:18:49;101042.53;;;-2.17;100.00
36380;BME280;22411;53.016;18.632;2023-03-03T07:21:32;101060.28;;;-2.13;100.00
36380;BME280;22411;53.016;18.632;2023-03-03T07:24:00;101060.28;;;-2.09;100.00
36380;BME280;22411;53.016;18.632;2023-03-03T07:26:29;101058.56;;;-2.04;100.00
36380;BME280;22411;53.016;18.632;2023-03-03T07:29:04;101070.38;;;-1.99;100.00
36380;BME280;22411;53.016;18.632;2023-03-03T07:31:40;101071.13;;;-1.89;100.00
36380;BME280;22411;53.016;18.632;2023-03-03T07:34:35;101067.72;;;-1.87;100.00
36380;BME280;22411;53.016;18.632;2023-03-03T07:37:31;101068.47;;;-1.74;100.00
36380;BME280;22411;53.016;18.632;2023-03-03T07:40:00;101086.28;;;-1.78;100.00
36380;BME280;22411;53.016;18.632;2023-03-03T07:42:39;101088.03;;;-1.83;100.00
36380;BME280;22411;53.016;18.632;2023-03-03T07:45:28;101083.81;;;-1.86;100.00
36380;BME280;22411;53.016;18.632;2023-03-03T07:48:09;101081.28;;;-1.91;100.00
36380;BME280;22411;53.016;18.632;2023-03-03T07:50:40;101089.78;;;-1.89;100.00
36380;BME280;22411;53.016;18.632;2023-03-03T07:53:26;101089.75;;;-1.90;100.00
36380;BME280;22411;53.016;18.632;2023-03-03T07:55:54;101093.16;;;-1.91;100.00
36380;BME280;22411;53.016;18.632;2023-03-03T07:58:38;101091.44;;;-1.86;100.00
36380;BME280;22411;53.016;18.632;2023-03-03T08:01:42;101096.41;;;-1.72;100.00
36380;BME280;22411;53.016;18.632;2023-03-03T08:06:45;101108.28;;;-1.73;100.00
36380;BME280;22411;53.016;18.632;2023-03-03T08:14:36;101099.09;;;-1.89;100.00
36380;BME280;22411;53.016;18.632;2023-03-03T08:17:35;101108.34;;;-1.79;100.00
36380;BME280;22411;53.016;18.632;2023-03-03T08:20:45;101099.00;;;-1.78;100.00
36380;BME280;22411;53.016;18.632;2023-03-03T08:23:11;101104.91;;;-1.73;100.00
36380;BME280;22411;53.016;18.632;2023-03-03T08:25:38;101104.84;;;-1.70;100.00
36380;BME280;22411;53.016;18.632;2023-03-03T08:28:05;101101.47;;;-1.68;100.00
36380;BME280;22411;53.016;18.632;2023-03-03T08:30:31;101100.53;;;-1.58;100.00
36380;BME280;22411;53.016;18.632;2023-03-03T08:32:57;101101.28;;;-1.49;100.00
36380;BME280;22411;53.016;18.632;2023-03-03T08:35:23;101110.59;;;-1.48;100.00
36380;BME280;22411;53.016;18.632;2023-03-03T08:37:50;101110.50;;;-1.39;100.00
36380;BME280;22411;53.016;18.632;2023-03-03T08:40:16;101110.50;;;-1.36;100.00
36380;BME280;22411;53.016;18.632;2023-03-03T08:42:42;101105.34;;;-1.30;100.00
36380;BME280;22411;53.016;18.632;2023-03-03T08:45:08;101105.25;;;-1.21;100.00
36380;BME280;22411;53.016;18.632;2023-03-03T08:47:34;101111.94;;;-1.14;100.00
36380;BME280;22411;53.016;18.632;2023-03-03T08:50:00;101117.84;;;-1.10;100.00
36380;BME280;22411;53.016;18.632;2023-03-03T08:52:26;101109.50;;;-1.23;100.00
36380;BME280;22411;53.016;18.632;2023-03-03T08:54:52;101106.19;;;-1.31;100.00
36380;BME280;22411;53.016;18.632;2023-03-03T08:57:19;101101.13;;;-1.34;100.00
36380;BME280;22411;53.016;18.632;2023-03-03T08:59:45;101096.03;;;-1.33;100.00
36380;BME280;22411;53.016;18.632;2023-03-03T09:02:12;101100.28;;;-1.32;100.00
36380;BME280;22411;53.016;18.632;2023-03-03T09:04:38;101109.53;;;-1.26;100.00
36380;BME280;22411;53.016;18.632;2023-03-03T09:07:05;101103.53;;;-1.22;100.00
36380;BME280;22411;53.016;18.632;2023-03-03T09:09:31;101117.00;;;-1.12;100.00
36380;BME280;22411;53.016;18.632;2023-03-03T09:11:58;101113.59;;;-1.10;100.00
36380;BME280;22411;53.016;18.632;2023-03-03T09:14:27;101114.41;;;-1.08;100.00
36380;BME280;22411;53.016;18.632;2023-03-03T09:16:55;101114.34;;;-0.98;100.00
36380;BME280;22411;53.016;18.632;2023-03-03T09:19:29;101113.53;;;-1.03;100.00
36380;BME280;22411;53.016;18.632;2023-03-03T09:22:18;101112.66;;;-0.99;100.00
36380;BME280;22411;53.016;18.632;2023-03-03T09:24:46;101108.41;;;-1.00;100.00
36380;BME280;22411;53.016;18.632;2023-03-03T09:27:34;101094.81;;;-0.98;100.00
36380;BME280;22411;53.016;18.632;2023-03-03T09:32:52;101075.91;;;-0.78;100.00
36380;BME280;22411;53.016;18.632;2023-03-03T09:37:56;101070.66;;;-0.66;100.00
36380;BME280;22411;53.016;18.632;2023-03-03T09:40:55;101060.41;;;-0.62;100.00
36380;BME280;22411;53.016;18.632;2023-03-03T09:49:25;101059.97;;;-0.30;100.00
36380;BME280;22411;53.016;18.632;2023-03-03T10:00:00;101064.72;;;-0.08;100.00
36380;BME280;22411;53.016;18.632;2023-03-03T10:02:37;101074.78;;;-0.01;100.00
36380;BME280;22411;53.016;18.632;2023-03-03T10:10:44;101057.72;;;0.06;100.00
36380;BME280;22411;53.016;18.632;2023-03-03T10:18:20;101061.44;;;0.36;100.00
36380;BME280;22411;53.016;18.632;2023-03-03T10:37:12;101063.91;;;0.42;100.00
36380;BME280;22411;53.016;18.632;2023-03-03T10:51:12;101057.91;;;0.88;100.00
36380;BME280;22411;53.016;18.632;2023-03-03T11:08:14;101040.59;;;1.04;100.00
36380;BME280;22411;53.016;18.632;2023-03-03T11:13:44;101041.47;;;1.03;100.00
36380;BME280;22411;53.016;18.632;2023-03-03T11:22:01;101034.13;;;1.28;100.00
36380;BME280;22411;53.016;18.632;2023-03-03T11:37:23;101047.00;;;1.23;100.00
36380;BME280;22411;53.016;18.632;2023-03-03T11:39:54;101031.81;;;1.17;100.00
36380;BME280;22411;53.016;18.632;2023-03-03T11:42:38;101032.78;;;1.12;100.00
36380;BME280;22411;53.016;18.632;2023-03-03T11:45:33;101014.88;;;1.13;100.00
36380;BME280;22411;53.016;18.632;2023-03-03T11:51:06;101033.44;;;1.20;100.00
36380;BME280;22411;53.016;18.632;2023-03-03T11:56:16;101022.34;;;1.21;100.00
36380;BME280;22411;53.016;18.632;2023-03-03T12:01:40;101024.38;;;1.45;100.00
36380;BME280;22411;53.016;18.632;2023-03-03T12:04:21;101026.88;;;1.47;100.00
36380;BME280;22411;53.016;18.632;2023-03-03T12:10:08;101030.56;;;1.35;100.00
36380;BME280;22411;53.016;18.632;2023-03-03T12:12:43;101022.75;;;1.41;100.00
36380;BME280;22411;53.016;18.632;2023-03-03T12:18:18;101016.13;;;1.34;100.00
36380;BME280;22411;53.016;18.632;2023-03-03T12:24:06;101013.84;;;1.20;100.00
36380;BME280;22411;53.016;18.632;2023-03-03T12:27:04;101017.91;;;1.30;100.00
36380;BME280;22411;53.016;18.632;2023-03-03T12:29:53;101006.63;;;1.39;100.00
36380;BME280;22411;53.016;18.632;2023-03-03T12:35:26;100999.13;;;1.31;100.00
36380;BME280;22411;53.016;18.632;2023-03-03T12:38:25;100994.13;;;1.28;100.00
36380;BME280;22411;53.016;18.632;2023-03-03T12:41:05;101013.00;;;1.21;100.00
36380;BME280;22411;53.016;18.632;2023-03-03T12:44:06;101003.63;;;1.22;100.00
36380;BME280;22411;53.016;18.632;2023-03-03T12:46:53;101015.19;;;1.38;100.00
36380;BME280;22411;53.016;18.632;2023-03-03T12:49:38;101010.22;;;1.30;100.00
36380;BME280;22411;53.016;18.632;2023-03-03T12:58:08;100995.50;;;1.42;100.00
36380;BME280;22411;53.016;18.632;2023-03-03T13:06:28;100987.97;;;1.36;100.00
36380;BME280;22411;53.016;18.632;2023-03-03T13:09:17;100994.81;;;1.35;100.00
36380;BME280;22411;53.016;18.632;2023-03-03T13:11:54;100986.22;;;1.39;100.00
36380;BME280;22411;53.016;18.632;2023-03-03T13:14:34;100996.28;;;1.45;100.00
36380;BME280;22411;53.016;18.632;2023-03-03T13:19:57;100981.59;;;1.55;100.00
36380;BME280;22411;53.016;18.632;2023-03-03T13:22:38;100987.72;;;1.46;100.00
36380;BME280;22411;53.016;18.632;2023-03-03T13:27:49;100965.97;;;1.30;100.00
36380;BME280;22411;53.016;18.632;2023-03-03T13:32:56;100965.66;;;1.44;100.00
36380;BME280;22411;53.016;18.632;2023-03-03T13:35:43;100974.22;;;1.43;100.00
36380;BME280;22411;53.016;18.632;2023-03-03T13:38:28;100968.31;;;1.39;100.00
36380;BME280;22411;53.016;18.632;2023-03-03T13:44:10;100970.78;;;1.42;100.00
36380;BME280;22411;53.016;18.632;2023-03-03T13:46:40;100962.19;;;1.46;100.00
36380;BME280;22411;53.016;18.632;2023-03-03T13:49:27;100974.06;;;1.47;100.00
36380;BME280;22411;53.016;18.632;2023-03-03T13:52:09;100950.97;;;1.53;100.00
36380;BME280;22411;53.016;18.632;2023-03-03T13:54:52;100951.75;;;1.55;100.00
36380;BME280;22411;53.016;18.632;2023-03-03T13:57:38;100954.94;;;1.65;100.00
36380;BME280;22411;53.016;18.632;2023-03-03T14:05:51;100936.91;;;1.71;100.00
36380;BME280;22411;53.016;18.632;2023-03-03T14:08:41;100935.78;;;1.81;100.00
36380;BME280;22411;53.016;18.632;2023-03-03T14:13:55;100945.53;;;2.00;100.00
36380;BME280;22411;53.016;18.632;2023-03-03T14:16:41;100929.47;;;1.95;100.00
36380;BME280;22411;53.016;18.632;2023-03-03T14:24:19;100943.84;;;1.66;100.00
36380;BME280;22411;53.016;18.632;2023-03-03T14:26:47;100945.50;;;1.67;100.00
36380;BME280;22411;53.016;18.632;2023-03-03T14:31:51;100925.47;;;1.84;100.00
36380;BME280;22411;53.016;18.632;2023-03-03T14:34:38;100934.00;;;1.85;100.00
36380;BME280;22411;53.016;18.632;2023-03-03T14:37:25;100932.28;;;1.84;100.00
36380;BME280;22411;53.016;18.632;2023-03-03T14:40:18;100924.63;;;1.86;100.00
36380;BME280;22411;53.016;18.632;2023-03-03T14:42:48;100921.22;;;1.83;100.00
36380;BME280;22411;53.016;18.632;2023-03-03T14:45:32;100909.56;;;1.75;100.00
36380;BME280;22411;53.016;18.632;2023-03-03T14:47:59;100898.50;;;1.74;100.00
36380;BME280;22411;53.016;18.632;2023-03-03T14:50:35;100892.41;;;1.78;100.00
36380;BME280;22411;53.016;18.632;2023-03-03T14:53:29;100905.44;;;1.69;100.00
36380;BME280;22411;53.016;18.632;2023-03-03T14:58:48;100897.72;;;1.71;100.00
36380;BME280;22411;53.016;18.632;2023-03-03T15:01:21;100904.44;;;1.75;100.00
36380;BME280;22411;53.016;18.632;2023-03-03T15:03:59;100894.16;;;1.76;100.00
36380;BME280;22411;53.016;18.632;2023-03-03T15:12:25;100896.38;;;1.90;100.00
36380;BME280;22411;53.016;18.632;2023-03-03T15:17:33;100895.59;;;1.87;100.00
36380;BME280;22411;53.016;18.632;2023-03-03T15:23:00;100885.88;;;1.99;100.00
36380;BME280;22411;53.016;18.632;2023-03-03T15:25:53;100897.66;;;2.05;100.00
36380;BME280;22411;53.016;18.632;2023-03-03T15:39:35;100893.13;;;1.83;100.00
36380;BME280;22411;53.016;18.632;2023-03-03T15:42:13;100891.28;;;1.89;100.00
36380;BME280;22411;53.016;18.632;2023-03-03T15:44:55;100881.88;;;1.91;100.00
36380;BME280;22411;53.016;18.632;2023-03-03T15:52:50;100878.63;;;1.84;100.00
36380;BME280;22411;53.016;18.632;2023-03-03T15:58:58;100879.56;;;1.81;100.00
36380;BME280;22411;53.016;18.632;2023-03-03T16:04:31;100874.66;;;1.72;100.00
36380;BME280;22411;53.016;18.632;2023-03-03T16:22:27;100859.31;;;1.40;100.00
36380;BME280;22411;53.016;18.632;2023-03-03T16:27:38;100860.38;;;1.33;100.00
36380;BME280;22411;53.016;18.632;2023-03-03T16:30:41;100856.03;;;1.35;100.00
36380;BME280;22411;53.016;18.632;2023-03-03T16:36:20;100855.63;;;1.16;100.00
36380;BME280;22411;53.016;18.632;2023-03-03T16:39:07;100848.13;;;1.11;100.00
36380;BME280;22411;53.016;18.632;2023-03-03T16:42:02;100844.75;;;1.09;100.00
36380;BME280;22411;53.016;18.632;2023-03-03T16:44:46;100845.63;;;1.08;100.00
36380;BME280;22411;53.016;18.632;2023-03-03T16:52:48;100835.09;;;0.86;100.00